Time;durP1;ratioP1;P1;durP2;ratioP2;P2;SDS_P1;SDS_P2;PMS_P1;PMS_P2;Temp;Humidity;BMP_temperature;BMP_pressure;BME280_temperature;BME280_humidity;BME280_pressure;Samples;Min_cycle;Max_cycle;Signal;HPM_P1;HPM_P2
2022/08/17 00:01:02;;;;;;;24.95;17.45;;;19.90;99.90;;;;;;5094195;28;20016;-75
2022/08/17 00:03:29;;;;;;;28.13;17.38;;;19.90;99.90;;;;;;5075594;28;20134;-75
2022/08/17 00:06:07;;;;;;;30.20;17.27;;;19.90;99.90;;;;;;5093817;28;20448;-75
2022/08/17 00:08:35;;;;;;;28.73;17.13;;;19.90;99.90;;;;;;5093802;28;20376;-75
2022/08/17 00:11:05;;;;;;;23.08;16.52;;;19.90;99.90;;;;;;5075487;28;20012;-73
2022/08/17 00:13:37;;;;;;;27.95;17.45;;;20.00;99.90;;;;;;5093589;28;20436;-73
2022/08/17 00:16:10;;;;;;;29.10;15.90;;;20.00;99.90;;;;;;5093450;28;20059;-73
2022/08/17 00:18:37;;;;;;;24.40;14.90;;;20.00;99.90;;;;;;5093681;28;20024;-73
2022/08/17 00:21:04;;;;;;;23.00;15.10;;;20.00;99.90;;;;;;5093517;28;20504;-73
2022/08/17 00:23:30;;;;;;;23.23;14.20;;;20.00;99.90;;;;;;5093448;28;20046;-73
2022/08/17 00:25:56;;;;;;;21.48;14.88;;;20.00;99.90;;;;;;5093953;28;20023;-73
2022/08/17 00:28:22;;;;;;;22.20;15.18;;;20.10;99.90;;;;;;5093696;28;20031;-73
2022/08/17 00:30:49;;;;;;;26.27;15.60;;;20.00;99.90;;;;;;5075235;28;20024;-73
2022/08/17 00:33:18;;;;;;;19.88;14.43;;;20.00;99.90;;;;;;5093426;28;20416;-73
2022/08/17 00:35:45;;;;;;;25.15;14.85;;;20.00;99.90;;;;;;5093282;28;20050;-73
2022/08/17 00:38:11;;;;;;;21.33;13.75;;;19.90;99.90;;;;;;5093612;28;20039;-73
2022/08/17 00:40:42;;;;;;;22.33;14.15;;;19.90;99.90;;;;;;5093339;28;20033;-73
2022/08/17 00:43:27;;;;;;;23.15;14.50;;;19.80;99.90;;;;;;5093259;28;20012;-73
2022/08/17 00:45:53;;;;;;;20.00;13.63;;;19.80;99.90;;;;;;5079015;28;20377;-73
2022/08/17 00:48:19;;;;;;;19.73;13.98;;;19.70;99.90;;;;;;5097752;28;20350;-73
2022/08/17 00:51:03;;;;;;;22.05;14.32;;;19.70;99.90;;;;;;5097483;28;20497;-73
2022/08/17 00:53:31;;;;;;;21.75;14.23;;;19.70;99.90;;;;;;5097777;28;20468;-73
2022/08/17 00:56:01;;;;;;;19.20;12.98;;;19.70;99.90;;;;;;5097358;28;20020;-73
2022/08/17 00:58:27;;;;;;;20.45;13.38;;;19.70;99.90;;;;;;5097369;28;20032;-73
2022/08/17 01:00:52;;;;;;;20.70;13.23;;;19.70;99.90;;;;;;5097461;28;20069;-73
2022/08/17 01:03:24;;;;;;;24.42;12.77;;;19.70;99.90;;;;;;5097457;28;20016;-73
2022/08/17 01:05:52;;;;;;;17.15;12.35;;;19.70;99.90;;;;;;5097178;28;20020;-73
2022/08/17 01:08:23;;;;;;;17.75;12.45;;;19.70;99.90;;;;;;5097142;28;20028;-73
2022/08/17 01:10:54;;;;;;;18.15;12.10;;;19.70;99.90;;;;;;5097110;28;20445;-73
2022/08/17 01:13:22;;;;;;;21.13;12.48;;;19.70;99.90;;;;;;5096981;28;20431;-73
2022/08/17 01:15:56;;;;;;;18.80;12.48;;;19.70;99.90;;;;;;5096701;28;20040;-73
2022/08/17 01:18:23;;;;;;;15.85;11.95;;;19.70;99.90;;;;;;5097207;28;20111;-73
2022/08/17 01:20:52;;;;;;;17.17;11.75;;;19.80;99.90;;;;;;5096879;28;20028;-73
2022/08/17 01:23:20;;;;;;;30.45;11.98;;;19.80;99.90;;;;;;5096809;28;20027;-73
2022/08/17 01:25:49;;;;;;;19.30;11.45;;;19.70;99.90;;;;;;5078589;28;20025;-73
2022/08/17 01:28:15;;;;;;;18.05;11.88;;;19.80;99.90;;;;;;5096994;28;20031;-73
2022/08/17 01:30:41;;;;;;;15.68;10.90;;;19.80;99.90;;;;;;5096727;28;20020;-73
2022/08/17 01:33:10;;;;;;;17.60;11.10;;;19.90;99.90;;;;;;5078505;28;20135;-73
2022/08/17 01:35:36;;;;;;;16.60;10.65;;;19.80;99.90;;;;;;5078428;28;20018;-73
2022/08/17 01:38:02;;;;;;;18.73;11.68;;;19.90;99.90;;;;;;5096750;28;20032;-73
2022/08/17 01:40:45;;;;;;;16.38;10.60;;;19.90;99.90;;;;;;5078371;28;20024;-73
2022/08/17 01:43:22;;;;;;;28.80;12.40;;;20.00;99.90;;;;;;5097299;28;20357;-73
2022/08/17 01:45:51;;;;;;;19.88;12.85;;;20.00;99.90;;;;;;5096716;28;20023;-73
2022/08/17 01:48:18;;;;;;;15.75;11.35;;;20.00;99.90;;;;;;5096374;28;20043;-73
2022/08/17 01:50:46;;;;;;;20.48;12.18;;;20.00;99.90;;;;;;5096258;28;20019;-73
2022/08/17 01:53:20;;;;;;;16.98;11.27;;;20.00;99.90;;;;;;5095994;28;20036;-73
2022/08/17 01:55:50;;;;;;;21.70;11.90;;;19.90;99.90;;;;;;5095332;28;20012;-73
2022/08/17 01:58:16;;;;;;;17.17;12.38;;;19.90;99.90;;;;;;5096483;28;20020;-73
2022/08/17 02:00:43;;;;;;;19.15;13.60;;;19.90;99.90;;;;;;5078576;28;20085;-73
2022/08/17 02:03:09;;;;;;;18.45;12.80;;;19.80;99.90;;;;;;5095991;28;20030;-73
2022/08/17 02:05:35;;;;;;;17.17;12.20;;;19.70;99.90;;;;;;5096344;28;20103;-73
2022/08/17 02:08:01;;;;;;;18.42;12.52;;;19.70;99.90;;;;;;5095983;28;20020;-73
2022/08/17 02:10:28;;;;;;;19.25;12.10;;;19.70;99.90;;;;;;5095852;28;20028;-73
2022/08/17 02:12:54;;;;;;;23.85;14.13;;;19.60;99.90;;;;;;5096395;28;20103;-73
2022/08/17 02:15:20;;;;;;;20.83;13.13;;;19.60;99.90;;;;;;5077597;28;20063;-73
2022/08/17 02:17:47;;;;;;;18.50;14.10;;;19.60;99.90;;;;;;5095759;28;20035;-73
2022/08/17 02:20:13;;;;;;;21.27;14.30;;;19.60;99.90;;;;;;5095726;28;20070;-73
2022/08/17 02:22:42;;;;;;;23.33;15.55;;;19.60;99.90;;;;;;5095638;28;20412;-73
2022/08/17 02:25:10;;;;;;;26.05;15.68;;;19.50;99.90;;;;;;5095666;28;20047;-73
2022/08/17 02:27:37;;;;;;;25.73;16.13;;;19.50;99.90;;;;;;5095588;28;20028;-73
2022/08/17 02:30:09;;;;;;;25.85;15.07;;;19.50;99.90;;;;;;5077477;28;20489;-73
2022/08/17 02:32:35;;;;;;;29.83;15.10;;;19.60;99.90;;;;;;5077368;28;20115;-73
2022/08/17 02:35:02;;;;;;;25.08;15.82;;;19.60;99.90;;;;;;5095482;28;20022;-73
2022/08/17 02:37:29;;;;;;;23.65;14.68;;;19.50;99.90;;;;;;5094892;28;20020;-73
2022/08/17 02:39:58;;;;;;;23.92;15.68;;;19.40;99.90;;;;;;5095399;28;20020;-71
2022/08/17 02:42:32;;;;;;;26.27;15.65;;;19.40;99.90;;;;;;5095307;28;20028;-71
2022/08/17 02:44:59;;;;;;;25.75;16.08;;;19.40;99.90;;;;;;5095589;28;20017;-71
2022/08/17 02:47:25;;;;;;;25.00;15.73;;;19.40;99.90;;;;;;5095486;28;20027;-71
2022/08/17 02:49:52;;;;;;;29.40;15.60;;;19.30;99.90;;;;;;5077599;28;20357;-71
2022/08/17 02:52:17;;;;;;;26.17;16.27;;;19.40;99.90;;;;;;5095314;28;20376;-71
2022/08/17 02:54:43;;;;;;;21.90;14.48;;;19.30;99.90;;;;;;5095011;28;20036;-71
2022/08/17 02:57:09;;;;;;;24.95;14.75;;;19.30;99.90;;;;;;5095001;28;20024;-71
2022/08/17 02:59:36;;;;;;;22.10;15.13;;;19.30;99.90;;;;;;5095010;28;20103;-71
2022/08/17 03:02:09;;;;;;;21.15;14.60;;;19.30;99.90;;;;;;5095174;28;20044;-71
2022/08/17 03:04:35;;;;;;;19.85;14.15;;;19.30;99.90;;;;;;5095495;28;20020;-71
2022/08/17 03:07:03;;;;;;;21.20;14.65;;;19.30;99.90;;;;;;5094822;28;20389;-71
2022/08/17 03:09:28;;;;;;;21.88;13.90;;;19.30;99.90;;;;;;5076762;28;20393;-71
2022/08/17 03:11:54;;;;;;;22.90;15.15;;;19.30;99.90;;;;;;5094721;28;20027;-71
2022/08/17 03:14:20;;;;;;;21.70;14.38;;;19.40;99.90;;;;;;5094616;28;20028;-71
2022/08/17 03:16:46;;;;;;;20.90;13.45;;;19.40;99.90;;;;;;5094585;28;20028;-71
2022/08/17 03:19:11;;;;;;;20.40;12.48;;;19.40;99.90;;;;;;5094649;28;20027;-71
2022/08/17 03:21:37;;;;;;;15.85;11.60;;;19.40;99.90;;;;;;5094450;28;20031;-71
2022/08/17 03:24:03;;;;;;;14.35;10.48;;;19.30;99.90;;;;;;5094459;28;20016;-71
2022/08/17 03:26:28;;;;;;;15.40;10.98;;;19.20;99.90;;;;;;5076261;28;20123;-71
2022/08/17 03:28:54;;;;;;;19.02;11.13;;;19.20;99.90;;;;;;5095013;28;20462;-73
2022/08/17 03:31:20;;;;;;;18.38;10.80;;;19.10;99.90;;;;;;5094559;28;20050;-73
2022/08/17 03:33:46;;;;;;;16.55;10.40;;;19.10;99.90;;;;;;5094263;28;20020;-73
2022/08/17 03:36:11;;;;;;;14.15;10.43;;;19.10;99.90;;;;;;5094215;28;20042;-73
2022/08/17 03:38:37;;;;;;;15.20;9.63;;;19.10;99.90;;;;;;5094281;28;20046;-73
2022/08/17 03:41:05;;;;;;;14.27;10.27;;;19.10;99.90;;;;;;5094173;28;20024;-73
2022/08/17 03:43:32;;;;;;;16.70;9.93;;;19.00;99.90;;;;;;5075902;28;20107;-73
2022/08/17 03:57:06;;;;;;;20.15;13.30;;;19.00;99.90;;;;;;5094305;28;20039;-71
2022/08/17 03:59:33;;;;;;;22.40;14.25;;;18.90;99.90;;;;;;5093877;28;20063;-71
2022/08/17 04:02:08;;;;;;;20.20;13.98;;;19.00;99.90;;;;;;5075790;28;20020;-71
2022/08/17 04:04:35;;;;;;;24.55;14.73;;;19.00;99.90;;;;;;5093905;28;20028;-71
2022/08/17 04:07:02;;;;;;;23.63;14.73;;;19.00;99.90;;;;;;5094034;28;20462;-71
2022/08/17 04:09:27;;;;;;;20.13;14.95;;;19.00;99.90;;;;;;5075573;28;20122;-71
2022/08/17 04:11:53;;;;;;;20.92;14.50;;;19.00;99.90;;;;;;5075468;28;20104;-71
2022/08/17 04:14:19;;;;;;;20.50;15.30;;;19.00;99.90;;;;;;5093447;28;20043;-71
2022/08/17 04:16:45;;;;;;;22.17;14.55;;;19.00;99.90;;;;;;5075488;28;20546;-71
2022/08/17 04:19:11;;;;;;;22.73;14.63;;;19.00;99.90;;;;;;5093053;28;20016;-71
2022/08/17 04:21:36;;;;;;;21.90;14.02;;;19.10;99.90;;;;;;5093494;28;20020;-71
2022/08/17 04:24:03;;;;;;;20.92;14.43;;;19.10;99.90;;;;;;5093593;28;20098;-71
2022/08/17 04:26:29;;;;;;;19.48;13.25;;;19.10;99.90;;;;;;5094071;28;20039;-71
2022/08/17 04:28:57;;;;;;;20.75;13.20;;;19.10;99.90;;;;;;5094024;28;20032;-71
2022/08/17 04:31:24;;;;;;;19.90;12.30;;;19.10;99.90;;;;;;5093373;28;20392;-71
2022/08/17 04:33:50;;;;;;;18.08;12.75;;;19.10;99.90;;;;;;5075331;28;20051;-71
2022/08/17 04:36:15;;;;;;;24.05;12.70;;;19.10;99.90;;;;;;5093400;28;20055;-71
2022/08/17 04:38:43;;;;;;;20.92;12.93;;;19.00;99.90;;;;;;5093370;28;20073;-71
2022/08/17 04:43:57;;;;;;;18.02;12.27;;;19.00;99.90;;;;;;5093387;28;20628;-71
2022/08/17 04:46:26;;;;;;;19.48;13.15;;;19.00;99.90;;;;;;5075247;28;20070;-71
2022/08/17 04:48:55;;;;;;;21.75;12.75;;;19.00;99.90;;;;;;5093542;28;20445;-71
2022/08/17 04:51:40;;;;;;;18.33;13.05;;;19.00;99.90;;;;;;5093121;28;20024;-72
2022/08/17 04:54:12;;;;;;;17.65;11.95;;;19.00;99.90;;;;;;5075163;28;20036;-72
2022/08/17 04:56:38;;;;;;;20.30;13.13;;;19.00;99.90;;;;;;5075049;28;20024;-72
2022/08/17 04:59:07;;;;;;;19.67;11.85;;;19.00;99.90;;;;;;5093810;28;20016;-72
2022/08/17 05:01:35;;;;;;;18.85;12.52;;;19.00;99.90;;;;;;5093331;28;20159;-72
2022/08/17 05:04:04;;;;;;;19.88;11.40;;;19.00;99.90;;;;;;5093456;28;20069;-72
2022/08/17 05:06:29;;;;;;;17.73;11.38;;;19.00;99.90;;;;;;5093438;28;20016;-72
2022/08/17 05:08:57;;;;;;;18.30;11.23;;;19.00;99.90;;;;;;5093140;28;20500;-72
2022/08/17 05:11:24;;;;;;;18.00;11.30;;;18.90;99.90;;;;;;5075406;28;20036;-72
2022/08/17 05:13:51;;;;;;;17.25;10.65;;;19.00;99.90;;;;;;5074899;28;20020;-72
2022/08/17 05:16:18;;;;;;;16.23;11.40;;;19.00;99.90;;;;;;5074789;28;20024;-72
2022/08/17 05:18:44;;;;;;;16.98;11.43;;;19.00;99.90;;;;;;5093008;28;20012;-72
2022/08/17 05:21:09;;;;;;;22.02;10.65;;;18.90;99.90;;;;;;5075603;28;20023;-71
2022/08/17 05:23:35;;;;;;;16.17;9.93;;;19.00;99.90;;;;;;5092882;28;20087;-71
2022/08/17 05:26:01;;;;;;;17.63;9.77;;;18.90;99.90;;;;;;5092997;28;20111;-71
2022/08/17 05:28:27;;;;;;;14.98;10.05;;;18.90;99.90;;;;;;5092865;28;20020;-71
2022/08/17 05:30:55;;;;;;;16.02;9.68;;;18.90;99.90;;;;;;5094873;28;20073;-71
2022/08/17 05:33:30;;;;;;;14.37;8.80;;;19.00;99.90;;;;;;5096637;28;20055;-71
2022/08/17 05:35:58;;;;;;;11.88;8.10;;;19.00;99.90;;;;;;5097130;28;20104;-71
2022/08/17 05:38:25;;;;;;;9.77;7.30;;;19.10;99.90;;;;;;5096575;28;20028;-71
2022/08/17 05:40:53;;;;;;;12.00;7.57;;;19.00;99.90;;;;;;5096562;28;20056;-71
2022/08/17 05:43:21;;;;;;;10.70;6.82;;;19.10;99.90;;;;;;5078261;28;20103;-71
2022/08/17 05:46:17;;;;;;;10.20;6.47;;;19.10;99.90;;;;;;5096604;28;20043;-71
2022/08/17 05:48:46;;;;;;;9.55;6.22;;;19.20;99.90;;;;;;5078212;28;20028;-71
2022/08/17 05:51:49;;;;;;;9.15;6.45;;;19.20;99.90;;;;;;5096321;28;20645;-71
2022/08/17 05:54:48;;;;;;;23.13;7.57;;;19.30;99.90;;;;;;5096108;28;20024;-71
2022/08/17 05:57:34;;;;;;;12.52;5.93;;;19.40;99.90;;;;;;5096687;28;20020;-71
2022/08/17 06:00:10;;;;;;;9.20;5.38;;;19.50;99.90;;;;;;5096196;28;20027;-71
2022/08/17 06:03:03;;;;;;;6.57;4.03;;;19.60;99.90;;;;;;5095918;28;20041;-71
2022/08/17 06:05:53;;;;;;;5.85;4.20;;;19.60;99.90;;;;;;5096346;28;20110;-71
2022/08/17 06:08:49;;;;;;;5.38;3.90;;;19.60;99.90;;;;;;5078626;28;20027;-71
2022/08/17 06:11:26;;;;;;;5.82;3.25;;;19.60;99.90;;;;;;5077710;28;20035;-71
2022/08/17 06:14:13;;;;;;;6.47;4.13;;;19.60;99.90;;;;;;5096329;28;20032;-71
2022/08/17 06:16:52;;;;;;;4.85;3.38;;;19.70;99.90;;;;;;5096830;28;20024;-71
2022/08/17 06:19:30;;;;;;;5.45;4.20;;;19.80;99.90;;;;;;5095858;28;20012;-71
2022/08/17 06:21:58;;;;;;;6.28;4.20;;;19.80;99.90;;;;;;5077611;28;20031;-71
2022/08/17 06:24:46;;;;;;;6.32;3.60;;;19.90;99.90;;;;;;5095648;28;20065;-71
2022/08/17 06:27:47;;;;;;;7.72;4.55;;;20.10;99.90;;;;;;5096054;28;20460;-71
2022/08/17 06:30:15;;;;;;;5.32;3.83;;;20.20;99.90;;;;;;5087306;28;20078;-74
2022/08/17 06:32:46;;;;;;;5.95;4.13;;;20.30;99.90;;;;;;5095714;28;20032;-74
2022/08/17 06:35:15;;;;;;;4.40;3.42;;;20.50;99.90;;;;;;5095652;28;20397;-74
2022/08/17 06:38:03;;;;;;;4.65;4.15;;;20.60;99.90;;;;;;5095517;28;20021;-74
2022/08/17 06:40:39;;;;;;;6.40;4.30;;;20.80;99.90;;;;;;5077395;28;20020;-74
2022/08/17 06:43:39;;;;;;;6.18;3.83;;;20.90;99.90;;;;;;5094944;28;20047;-74
2022/08/17 06:46:28;;;;;;;5.03;3.83;;;21.00;99.90;;;;;;5095423;28;20024;-74
2022/08/17 06:49:21;;;;;;;5.78;3.85;;;21.10;99.90;;;;;;5077227;28;20027;-74
2022/08/17 06:52:19;;;;;;;5.43;3.70;;;21.10;99.90;;;;;;5077290;28;20042;-72
2022/08/17 06:55:05;;;;;;;4.85;3.63;;;21.20;99.90;;;;;;5095314;28;20469;-72
2022/08/17 06:57:34;;;;;;;5.07;3.80;;;21.20;99.90;;;;;;5076664;28;20107;-72
2022/08/17 07:00:19;;;;;;;5.18;4.05;;;21.20;99.90;;;;;;5095351;28;20484;-72
2022/08/17 07:03:24;;;;;;;5.65;4.22;;;21.20;99.90;;;;;;5095375;28;20068;-72
2022/08/17 07:06:10;;;;;;;6.80;4.50;;;21.20;99.90;;;;;;5095146;28;20381;-72
2022/08/17 07:09:06;;;;;;;7.22;4.30;;;21.20;99.90;;;;;;5095114;28;20026;-72
2022/08/17 07:11:52;;;;;;;6.40;4.28;;;21.20;99.90;;;;;;5055952;28;20040;-72
2022/08/17 07:14:41;;;;;;;5.95;4.05;;;21.20;99.90;;;;;;5101432;23;20032;-74
2022/08/17 07:17:09;;;;;;;;;;;21.10;99.90;;;;;;5095161;28;20434;-74
2022/08/17 07:19:39;;;;;;;4.32;3.50;;;21.20;99.90;;;;;;5094684;28;19904;-74
2022/08/17 07:22:30;;;;;;;3.97;3.15;;;21.20;99.90;;;;;;5094958;28;20028;-74
2022/08/17 07:24:58;;;;;;;5.60;4.00;;;21.20;99.90;;;;;;5094705;28;20103;-74
2022/08/17 07:27:36;;;;;;;5.05;3.10;;;21.20;99.90;;;;;;5094549;28;20020;-74
2022/08/17 07:30:19;;;;;;;4.50;3.17;;;21.30;99.90;;;;;;5094950;28;20024;-74
2022/08/17 07:32:58;;;;;;;3.30;2.38;;;21.30;99.90;;;;;;5076524;28;20044;-74
2022/08/17 07:35:30;;;;;;;3.83;2.92;;;21.40;99.90;;;;;;5095000;28;20024;-74
2022/08/17 07:38:23;;;;;;;3.10;2.80;;;21.40;99.90;;;;;;5094364;28;20110;-74
2022/08/17 07:41:01;;;;;;;4.28;2.72;;;21.50;99.90;;;;;;5094876;28;20027;-74
2022/08/17 07:43:36;;;;;;;4.47;2.38;;;21.50;99.90;;;;;;5094325;28;20047;-74
2022/08/17 07:48:55;;;;;;;4.68;2.40;;;21.40;99.90;;;;;;5094474;28;20066;-73
2022/08/17 07:51:24;;;;;;;3.65;2.88;;;21.40;99.90;;;;;;5075811;28;20388;-73
2022/08/17 07:53:50;;;;;;;5.13;3.20;;;21.40;99.90;;;;;;5093156;28;20016;-73
2022/08/17 07:56:42;;;;;;;4.40;3.05;;;21.30;99.90;;;;;;5093702;28;20141;-73
2022/08/17 07:59:28;;;;;;;4.70;3.28;;;21.40;99.90;;;;;;5075909;28;20024;-73
2022/08/17 08:01:53;;;;;;;5.25;3.65;;;21.50;99.90;;;;;;5093686;28;20020;-73
2022/08/17 08:04:33;;;;;;;5.35;3.25;;;21.50;99.90;;;;;;5094414;28;20088;-72
2022/08/17 08:07:03;;;;;;;3.88;3.58;;;21.60;99.90;;;;;;5094404;28;20020;-72
2022/08/17 08:09:44;;;;;;;5.95;3.63;;;21.60;99.90;;;;;;5093852;28;20024;-72
2022/08/17 08:12:40;;;;;;;5.55;4.50;;;21.70;99.90;;;;;;5093683;28;20115;-72
2022/08/17 08:15:24;;;;;;;6.05;3.85;;;21.70;99.90;;;;;;5093481;28;20028;-72
2022/08/17 08:17:51;;;;;;;9.02;4.95;;;21.80;99.90;;;;;;5093596;28;20028;-72
2022/08/17 08:20:20;;;;;;;7.40;4.22;;;21.80;99.90;;;;;;5093637;28;20376;-72
2022/08/17 08:23:18;;;;;;;6.20;3.97;;;21.80;99.90;;;;;;5093574;28;20016;-72
2022/08/17 08:26:13;;;;;;;7.38;4.65;;;21.80;99.90;;;;;;5073336;28;20032;-72
2022/08/17 08:29:00;;;;;;;7.70;4.35;;;21.80;99.90;;;;;;5096053;28;20103;-73
2022/08/17 08:31:51;;;;;;;8.60;5.07;;;21.90;99.90;;;;;;5095818;28;20016;-72
2022/08/17 08:34:52;;;;;;;9.68;5.32;;;22.10;99.90;;;;;;5096798;28;20024;-72
2022/08/17 08:37:42;;;;;;;9.45;6.22;;;22.00;99.90;;;;;;5095839;28;20028;-73
2022/08/17 08:40:33;;;;;;;7.38;5.80;;;22.10;99.90;;;;;;5095375;28;20031;-73
2022/08/17 08:43:17;;;;;;;10.77;6.60;;;22.10;99.90;;;;;;5095652;28;20384;-72
2022/08/17 08:45:59;;;;;;;9.90;6.07;;;22.10;99.90;;;;;;5096323;28;20028;-72
2022/08/17 08:48:33;;;;;;;12.27;7.15;;;22.20;99.90;;;;;;5096252;28;20028;-72
2022/08/17 08:51:07;;;;;;;12.18;6.70;;;22.30;99.90;;;;;;5096170;28;20030;-73
2022/08/17 08:54:02;;;;;;;9.93;6.60;;;22.50;99.90;;;;;;5095739;28;20035;-74
2022/08/17 08:56:48;;;;;;;10.07;6.82;;;22.50;99.90;;;;;;5078067;28;20553;-72
2022/08/17 08:59:27;;;;;;;5.55;3.97;;;22.50;99.90;;;;;;5095683;28;20024;-73
2022/08/17 09:02:22;;;;;;;6.38;4.47;;;22.40;99.90;;;;;;5078268;28;20024;-73
2022/08/17 09:05:16;;;;;;;4.63;3.90;;;22.40;99.90;;;;;;5063406;28;20032;-73
2022/08/17 09:08:09;;;;;;;6.15;2.97;;;22.20;99.90;;;;;;5083710;28;20036;-73
2022/08/17 09:10:38;;;;;;;5.25;3.13;;;22.20;99.90;;;;;;5097578;28;20020;-73
2022/08/17 09:13:29;;;;;;;7.25;3.05;;;22.10;99.90;;;;;;5097175;28;20024;-73
2022/08/17 09:16:05;;;;;;;5.32;3.00;;;22.00;99.90;;;;;;5096984;28;20039;-73
2022/08/17 09:18:37;;;;;;;4.07;2.90;;;22.00;99.90;;;;;;5079008;28;20024;-73
2022/08/17 09:21:12;;;;;;;4.65;2.92;;;21.90;99.90;;;;;;5097565;28;20500;-73
2022/08/17 09:23:48;;;;;;;4.88;3.47;;;21.90;99.90;;;;;;5097003;28;20035;-73
2022/08/17 09:26:23;;;;;;;5.28;3.22;;;21.90;99.90;;;;;;5078747;28;20020;-72
2022/08/17 09:29:00;;;;;;;4.10;3.22;;;21.70;99.90;;;;;;5096710;28;20024;-73
2022/08/17 09:31:37;;;;;;;5.97;3.67;;;21.70;99.90;;;;;;5096561;28;20023;-73
2022/08/17 09:34:15;;;;;;;3.95;3.45;;;21.50;99.90;;;;;;5078632;28;20173;-73
2022/08/17 09:37:10;;;;;;;6.57;4.07;;;21.50;99.90;;;;;;5096750;28;20081;-73
2022/08/17 09:39:44;;;;;;;6.93;3.97;;;21.40;99.90;;;;;;5074244;28;20068;-74
2022/08/17 09:42:18;;;;;;;8.70;3.53;;;21.30;99.90;;;;;;5097211;28;20099;-73
2022/08/17 09:45:14;;;;;;;5.95;3.63;;;21.10;99.90;;;;;;5078430;28;20016;-73
2022/08/17 09:47:50;;;;;;;5.22;3.97;;;21.00;99.90;;;;;;5097158;28;20032;-73
2022/08/17 09:50:26;;;;;;;9.80;4.13;;;20.80;99.90;;;;;;5096696;28;20468;-73
2022/08/17 09:52:57;;;;;;;6.00;4.00;;;20.80;99.90;;;;;;5096415;28;20035;-72
2022/08/17 09:55:41;;;;;;;6.75;4.20;;;20.80;99.90;;;;;;5096619;28;20028;-72
2022/08/17 09:58:17;;;;;;;6.85;3.60;;;20.90;99.90;;;;;;5078860;28;20050;-72
2022/08/17 10:00:55;;;;;;;7.55;3.78;;;21.20;99.90;;;;;;5096365;28;20032;-72
2022/08/17 10:03:50;;;;;;;5.80;3.77;;;21.30;99.90;;;;;;5078081;28;20358;-72
2022/08/17 10:06:23;;;;;;;5.05;3.92;;;21.40;99.90;;;;;;5078070;28;20459;-72
2022/08/17 10:09:18;;;;;;;3.65;3.30;;;21.60;99.90;;;;;;5096209;28;20022;-72
2022/08/17 10:15:00;;;;;;;5.43;4.07;;;21.60;99.90;;;;;;5096397;28;20043;-72
2022/08/17 10:17:38;;;;;;;5.72;5.10;;;21.70;99.90;;;;;;5094606;28;20115;-72
2022/08/17 10:20:15;;;;;;;7.60;4.30;;;21.80;99.90;;;;;;5077646;28;20024;-72
2022/08/17 10:28:24;;;;;;;8.43;4.17;;;22.10;99.90;;;;;;5096298;28;20090;-72
2022/08/17 10:30:55;;;;;;;6.85;4.20;;;22.20;99.90;;;;;;5095889;28;20020;-72
2022/08/17 10:33:31;;;;;;;5.63;4.28;;;22.40;99.90;;;;;;5095780;28;20058;-72
2022/08/17 10:36:09;;;;;;;5.57;4.35;;;22.40;99.90;;;;;;5095517;28;20024;-71
2022/08/17 10:38:44;;;;;;;;;;;22.40;99.90;;;;;;5095983;28;20048;-72
2022/08/17 10:41:27;;;;;;;9.85;5.28;;;22.40;99.90;;;;;;5096066;28;19954;-72
2022/08/17 10:44:22;;;;;;;5.20;4.18;;;22.50;99.90;;;;;;5096620;28;20103;-72
2022/08/17 10:47:14;;;;;;;8.98;4.70;;;22.50;99.90;;;;;;5077186;28;20028;-72
2022/08/17 10:49:46;;;;;;;8.98;5.20;;;22.60;99.90;;;;;;5095286;28;20031;-72
2022/08/17 10:52:27;;;;;;;7.88;4.40;;;22.70;99.90;;;;;;5095134;28;20027;-72
2022/08/17 10:54:55;;;;;;;6.30;4.20;;;22.90;99.90;;;;;;5095241;28;20028;-72
2022/08/17 10:57:32;;;;;;;7.80;5.18;;;22.90;99.90;;;;;;5095139;28;20073;-72
2022/08/17 11:00:13;;;;;;;8.02;4.53;;;23.00;99.90;;;;;;5094993;28;20032;-72
2022/08/17 11:02:49;;;;;;;8.10;4.53;;;23.00;99.90;;;;;;5095230;28;20031;-72
2022/08/17 11:05:30;;;;;;;5.07;3.53;;;23.10;99.90;;;;;;5095337;28;20028;-72
2022/08/17 11:08:11;;;;;;;6.35;4.15;;;23.10;99.90;;;;;;5076888;28;20028;-72
2022/08/17 11:10:47;;;;;;;6.75;3.70;;;23.20;99.90;;;;;;5094926;28;20024;-71
2022/08/17 11:13:30;;;;;;;6.70;4.45;;;23.30;99.90;;;;;;5094923;28;20107;-72
2022/08/17 11:16:20;;;;;;;8.00;4.50;;;23.40;99.90;;;;;;5094784;28;20561;-72
2022/08/17 11:19:23;;;;;;;7.32;3.97;;;23.40;99.90;;;;;;5095228;28;20039;-72
2022/08/17 11:22:15;;;;;;;7.72;4.65;;;23.50;99.90;;;;;;5094880;28;20111;-72
2022/08/17 11:24:46;;;;;;;7.82;4.57;;;23.50;99.90;;;;;;5070962;28;20068;-72
2022/08/17 11:27:28;;;;;;;7.60;5.20;;;23.50;99.90;;;;;;5095074;28;20103;-72
2022/08/17 11:29:59;;;;;;;6.32;3.88;;;23.50;99.90;;;;;;5076301;28;20111;-72
2022/08/17 11:32:43;;;;;;;6.15;4.22;;;23.40;99.90;;;;;;5094804;28;20115;-72
2022/08/17 11:35:21;;;;;;;6.40;4.03;;;23.30;99.90;;;;;;5076352;28;20496;-72
2022/08/17 11:37:52;;;;;;;6.93;4.57;;;23.20;99.90;;;;;;5094800;28;20067;-72
2022/08/17 11:40:40;;;;;;;6.18;4.07;;;23.00;99.90;;;;;;5094875;28;20429;-72
2022/08/17 11:43:22;;;;;;;7.03;4.80;;;22.80;99.90;;;;;;5076010;28;20051;-72
2022/08/17 11:46:19;;;;;;;11.02;4.80;;;22.60;99.90;;;;;;5094120;28;20273;-72
2022/08/17 11:52:10;;;;;;;6.53;5.13;;;22.20;99.90;;;;;;5094514;28;20027;-72
2022/08/17 11:54:47;;;;;;;9.65;5.47;;;22.10;99.90;;;;;;5094051;28;20385;-72
2022/08/17 11:57:25;;;;;;;8.07;5.35;;;22.00;99.90;;;;;;5093795;28;20024;-72
2022/08/17 11:59:50;;;;;;;7.65;5.75;;;21.80;99.90;;;;;;5075648;28;20032;-72
2022/08/17 12:02:31;;;;;;;10.05;6.00;;;21.70;99.90;;;;;;5075871;28;20031;-72
2022/08/17 12:05:24;;;;;;;9.98;5.53;;;21.60;99.90;;;;;;5075817;28;20492;-72
2022/08/17 12:08:13;;;;;;;9.77;6.30;;;21.50;99.90;;;;;;5094473;28;20016;-72
2022/08/17 12:10:51;;;;;;;10.32;6.15;;;21.50;99.90;;;;;;5075642;28;20034;-72
2022/08/17 12:13:18;;;;;;;10.85;6.65;;;21.50;99.90;;;;;;5075601;28;20028;-72
2022/08/17 12:15:48;;;;;;;12.18;6.82;;;21.50;99.90;;;;;;5075542;28;20047;-72
2022/08/17 12:18:23;;;;;;;11.07;6.70;;;21.40;99.90;;;;;;5076069;28;20042;-72
2022/08/17 12:21:07;;;;;;;19.67;7.28;;;21.60;99.90;;;;;;5093660;28;20437;-72
2022/08/17 12:24:02;;;;;;;12.32;7.72;;;21.50;99.90;;;;;;5093554;28;20047;-72
2022/08/17 12:26:32;;;;;;;11.38;7.55;;;21.40;99.90;;;;;;5093458;28;20108;-72
2022/08/17 12:29:04;;;;;;;10.10;7.60;;;21.40;99.90;;;;;;5094018;28;20020;-72
2022/08/17 12:31:34;;;;;;;14.07;8.25;;;21.30;99.90;;;;;;5076030;28;20055;-72
2022/08/17 12:34:03;;;;;;;13.65;8.52;;;21.30;99.90;;;;;;5093468;28;20056;-72
2022/08/17 12:36:31;;;;;;;11.18;7.43;;;21.30;99.90;;;;;;5093422;28;20102;-72
2022/08/17 12:39:05;;;;;;;12.60;8.52;;;21.30;99.90;;;;;;5093654;28;20016;-72
2022/08/17 12:41:37;;;;;;;12.15;8.45;;;21.40;99.90;;;;;;5093148;28;20069;-72
2022/08/17 12:44:11;;;;;;;13.50;9.23;;;21.40;99.90;;;;;;5093652;28;20511;-72
2022/08/17 12:47:18;;;;;;;11.27;8.85;;;21.40;99.90;;;;;;5093443;28;20089;-72
2022/08/17 12:49:47;;;;;;;16.45;10.55;;;21.50;99.90;;;;;;5093873;28;20455;-72
2022/08/17 12:52:24;;;;;;;13.48;9.20;;;21.50;99.90;;;;;;5075218;28;20016;-72
2022/08/17 12:55:04;;;;;;;16.15;10.90;;;21.50;99.90;;;;;;5075213;28;20032;-72
2022/08/17 12:57:31;;;;;;;15.93;10.63;;;21.50;99.90;;;;;;5093596;28;20036;-73
2022/08/17 13:00:06;;;;;;;15.75;10.45;;;21.60;99.90;;;;;;5093367;28;20020;-72
2022/08/17 13:03:01;;;;;;;14.07;10.57;;;21.70;99.90;;;;;;5093842;28;20020;-72
2022/08/17 13:05:35;;;;;;;16.10;11.13;;;21.70;99.90;;;;;;5094448;28;20028;-72
2022/08/17 13:08:12;;;;;;;14.60;10.40;;;21.80;99.90;;;;;;5093440;28;20064;-72
2022/08/17 13:10:38;;;;;;;13.82;9.25;;;21.80;99.90;;;;;;5093537;28;20362;-73
2022/08/17 13:13:19;;;;;;;14.27;10.25;;;21.80;99.90;;;;;;5075030;28;20074;-73
2022/08/17 13:15:54;;;;;;;12.95;9.13;;;21.80;99.90;;;;;;5074748;28;20116;-73
2022/08/17 13:18:37;;;;;;;12.00;9.07;;;21.80;99.90;;;;;;5093028;28;20032;-73
2022/08/17 13:21:05;;;;;;;12.18;9.10;;;21.90;99.90;;;;;;5074942;28;20028;-73
2022/08/17 13:23:30;;;;;;;12.02;7.93;;;21.90;99.90;;;;;;5074893;28;20051;-73
2022/08/17 13:26:13;;;;;;;12.75;8.15;;;21.90;99.90;;;;;;5075107;28;20054;-73
2022/08/17 13:28:45;;;;;;;11.80;7.65;;;21.90;99.90;;;;;;5075061;28;20020;-73
2022/08/17 13:31:43;;;;;;;13.18;7.78;;;21.80;99.90;;;;;;5093083;28;20423;-73
2022/08/17 13:34:24;;;;;;;11.35;7.82;;;21.80;99.90;;;;;;5059359;28;20105;-73
2022/08/17 13:36:51;;;;;;;12.57;9.00;;;21.80;99.90;;;;;;5074895;28;20028;-73
2022/08/17 13:39:20;;;;;;;12.43;8.23;;;21.80;99.90;;;;;;5074968;28;20027;-73
2022/08/17 13:41:48;;;;;;;11.98;7.30;;;21.80;99.90;;;;;;5092920;28;20024;-73
2022/08/17 13:44:36;;;;;;;11.82;8.35;;;21.80;99.90;;;;;;5074883;28;20484;-73
2022/08/17 13:47:04;;;;;;;11.95;8.15;;;21.80;99.90;;;;;;5093608;28;20024;-73